sensor_id;sensor_type;location;lat;lon;timestamp;temperature;humidity
19908;DHT22;10116;53.112;7.356;2022-12-29T00:02:08;24.00;89.60
19908;DHT22;10116;53.112;7.356;2022-12-29T00:04:34;24.00;90.00
19908;DHT22;10116;53.112;7.356;2022-12-29T00:07:00;24.00;90.00
19908;DHT22;10116;53.112;7.356;2022-12-29T00:09:26;24.00;89.70
19908;DHT22;10116;53.112;7.356;2022-12-29T00:11:52;24.00;89.70
19908;DHT22;10116;53.112;7.356;2022-12-29T00:14:18;24.00;90.10
19908;DHT22;10116;53.112;7.356;2022-12-29T00:17:02;24.00;90.50
19908;DHT22;10116;53.112;7.356;2022-12-29T00:19:28;24.00;90.40
19908;DHT22;10116;53.112;7.356;2022-12-29T00:22:14;24.00;90.10
19908;DHT22;10116;53.112;7.356;2022-12-29T00:24:59;24.00;90.10
19908;DHT22;10116;53.112;7.356;2022-12-29T00:27:31;24.00;90.10
19908;DHT22;10116;53.112;7.356;2022-12-29T00:30:21;24.00;90.10
19908;DHT22;10116;53.112;7.356;2022-12-29T00:33:13;24.00;90.20
19908;DHT22;10116;53.112;7.356;2022-12-29T00:38:25;24.00;90.30
19908;DHT22;10116;53.112;7.356;2022-12-29T00:41:09;24.00;90.70
19908;DHT22;10116;53.112;7.356;2022-12-29T00:43:53;24.00;90.60
19908;DHT22;10116;53.112;7.356;2022-12-29T00:46:35;24.00;97.70
19908;DHT22;10116;53.112;7.356;2022-12-29T00:49:01;24.00;90.50
19908;DHT22;10116;53.112;7.356;2022-12-29T00:51:46;24.00;90.40
19908;DHT22;10116;53.112;7.356;2022-12-29T00:54:12;24.00;90.70
19908;DHT22;10116;53.112;7.356;2022-12-29T00:56:38;24.00;90.60
19908;DHT22;10116;53.112;7.356;2022-12-29T00:59:05;24.00;90.80
19908;DHT22;10116;53.112;7.356;2022-12-29T01:01:32;24.00;90.50
19908;DHT22;10116;53.112;7.356;2022-12-29T01:03:57;24.00;90.50
19908;DHT22;10116;53.112;7.356;2022-12-29T01:06:23;24.10;91.00
19908;DHT22;10116;53.112;7.356;2022-12-29T01:08:49;24.00;90.70
19908;DHT22;10116;53.112;7.356;2022-12-29T01:11:34;24.10;90.80
19908;DHT22;10116;53.112;7.356;2022-12-29T01:14:00;24.10;90.90
19908;DHT22;10116;53.112;7.356;2022-12-29T01:16:25;24.10;91.20
19908;DHT22;10116;53.112;7.356;2022-12-29T01:18:51;24.10;91.40
19908;DHT22;10116;53.112;7.356;2022-12-29T01:21:16;24.10;91.10
19908;DHT22;10116;53.112;7.356;2022-12-29T01:23:42;24.10;91.20
19908;DHT22;10116;53.112;7.356;2022-12-29T01:26:10;24.10;91.10
19908;DHT22;10116;53.112;7.356;2022-12-29T01:28:35;24.00;91.00
19908;DHT22;10116;53.112;7.356;2022-12-29T01:31:04;24.10;91.00
19908;DHT22;10116;53.112;7.356;2022-12-29T01:33:30;24.10;91.50
19908;DHT22;10116;53.112;7.356;2022-12-29T01:36:00;24.10;91.30
19908;DHT22;10116;53.112;7.356;2022-12-29T01:38:25;24.10;91.00
19908;DHT22;10116;53.112;7.356;2022-12-29T01:40:51;24.10;91.10
19908;DHT22;10116;53.112;7.356;2022-12-29T01:43:16;24.10;91.30
19908;DHT22;10116;53.112;7.356;2022-12-29T01:45:53;24.10;91.30
19908;DHT22;10116;53.112;7.356;2022-12-29T01:48:19;24.00;91.10
19908;DHT22;10116;53.112;7.356;2022-12-29T01:50:50;24.00;90.90
19908;DHT22;10116;53.112;7.356;2022-12-29T01:53:29;24.00;91.70
19908;DHT22;10116;53.112;7.356;2022-12-29T01:56:01;24.00;90.80
19908;DHT22;10116;53.112;7.356;2022-12-29T01:58:30;24.00;90.80
19908;DHT22;10116;53.112;7.356;2022-12-29T02:00:57;24.00;91.10
19908;DHT22;10116;53.112;7.356;2022-12-29T02:03:27;24.00;90.90
19908;DHT22;10116;53.112;7.356;2022-12-29T02:05:58;24.00;91.60
19908;DHT22;10116;53.112;7.356;2022-12-29T02:08:28;24.00;91.20
19908;DHT22;10116;53.112;7.356;2022-12-29T02:10:56;24.00;91.20
19908;DHT22;10116;53.112;7.356;2022-12-29T02:13:24;24.00;91.30
19908;DHT22;10116;53.112;7.356;2022-12-29T02:15:56;24.00;91.30
19908;DHT22;10116;53.112;7.356;2022-12-29T02:18:48;24.00;91.50
19908;DHT22;10116;53.112;7.356;2022-12-29T02:26:49;24.00;91.20
19908;DHT22;10116;53.112;7.356;2022-12-29T02:29:53;24.00;91.10
19908;DHT22;10116;53.112;7.356;2022-12-29T02:40:27;24.00;91.00
19908;DHT22;10116;53.112;7.356;2022-12-29T02:43:17;24.00;91.10
19908;DHT22;10116;53.112;7.356;2022-12-29T02:48:49;24.00;91.20
19908;DHT22;10116;53.112;7.356;2022-12-29T02:51:25;24.00;91.20
19908;DHT22;10116;53.112;7.356;2022-12-29T02:53:53;24.00;91.20
19908;DHT22;10116;53.112;7.356;2022-12-29T02:56:38;24.00;91.10
19908;DHT22;10116;53.112;7.356;2022-12-29T02:59:03;24.00;91.50
19908;DHT22;10116;53.112;7.356;2022-12-29T03:04:49;24.00;91.00
19908;DHT22;10116;53.112;7.356;2022-12-29T03:07:26;24.00;92.80
19908;DHT22;10116;53.112;7.356;2022-12-29T03:10:07;24.00;91.10
19908;DHT22;10116;53.112;7.356;2022-12-29T03:15:34;23.90;91.30
19908;DHT22;10116;53.112;7.356;2022-12-29T03:21:20;23.90;91.00
19908;DHT22;10116;53.112;7.356;2022-12-29T03:23:49;23.90;91.10
19908;DHT22;10116;53.112;7.356;2022-12-29T03:26:17;23.90;91.10
19908;DHT22;10116;53.112;7.356;2022-12-29T03:28:53;23.90;91.40
19908;DHT22;10116;53.112;7.356;2022-12-29T03:31:21;24.00;91.20
19908;DHT22;10116;53.112;7.356;2022-12-29T03:33:49;23.90;91.20
19908;DHT22;10116;53.112;7.356;2022-12-29T03:36:26;23.90;91.50
19908;DHT22;10116;53.112;7.356;2022-12-29T03:39:01;23.90;91.80
19908;DHT22;10116;53.112;7.356;2022-12-29T03:41:31;23.90;91.60
19908;DHT22;10116;53.112;7.356;2022-12-29T03:43:57;23.90;91.70
19908;DHT22;10116;53.112;7.356;2022-12-29T03:46:23;23.90;91.30
19908;DHT22;10116;53.112;7.356;2022-12-29T03:48:49;23.90;91.90
19908;DHT22;10116;53.112;7.356;2022-12-29T03:51:14;23.90;91.40
19908;DHT22;10116;53.112;7.356;2022-12-29T03:53:40;23.90;91.70
19908;DHT22;10116;53.112;7.356;2022-12-29T03:56:05;23.90;91.90
19908;DHT22;10116;53.112;7.356;2022-12-29T03:58:31;23.90;92.00
19908;DHT22;10116;53.112;7.356;2022-12-29T04:00:57;23.90;91.70
19908;DHT22;10116;53.112;7.356;2022-12-29T04:03:22;23.90;92.00
19908;DHT22;10116;53.112;7.356;2022-12-29T04:05:48;23.90;91.90
19908;DHT22;10116;53.112;7.356;2022-12-29T04:08:14;24.00;91.80
19908;DHT22;10116;53.112;7.356;2022-12-29T04:10:39;24.00;92.50
19908;DHT22;10116;53.112;7.356;2022-12-29T04:13:05;24.00;91.90
19908;DHT22;10116;53.112;7.356;2022-12-29T04:15:31;24.00;92.40
19908;DHT22;10116;53.112;7.356;2022-12-29T04:17:56;24.00;92.70
19908;DHT22;10116;53.112;7.356;2022-12-29T04:20:22;24.00;92.40
19908;DHT22;10116;53.112;7.356;2022-12-29T04:23:06;24.00;92.10
19908;DHT22;10116;53.112;7.356;2022-12-29T04:25:33;24.00;92.00
19908;DHT22;10116;53.112;7.356;2022-12-29T04:27:59;24.00;92.30
19908;DHT22;10116;53.112;7.356;2022-12-29T04:30:25;24.00;92.30
19908;DHT22;10116;53.112;7.356;2022-12-29T04:32:50;24.10;92.60
19908;DHT22;10116;53.112;7.356;2022-12-29T04:35:16;24.10;93.10
19908;DHT22;10116;53.112;7.356;2022-12-29T04:37:42;24.20;93.90
19908;DHT22;10116;53.112;7.356;2022-12-29T04:40:08;24.20;95.00
19908;DHT22;10116;53.112;7.356;2022-12-29T04:42:33;24.30;94.60
19908;DHT22;10116;53.112;7.356;2022-12-29T04:44:59;24.30;94.80
19908;DHT22;10116;53.112;7.356;2022-12-29T04:47:25;24.30;94.80
19908;DHT22;10116;53.112;7.356;2022-12-29T04:49:50;24.40;95.00
19908;DHT22;10116;53.112;7.356;2022-12-29T04:52:16;24.40;95.10
19908;DHT22;10116;53.112;7.356;2022-12-29T04:54:41;24.40;99.90
19908;DHT22;10116;53.112;7.356;2022-12-29T04:57:07;24.40;95.60
19908;DHT22;10116;53.112;7.356;2022-12-29T04:59:32;24.40;95.00
19908;DHT22;10116;53.112;7.356;2022-12-29T05:01:58;24.40;95.10
19908;DHT22;10116;53.112;7.356;2022-12-29T05:04:24;24.40;95.20
19908;DHT22;10116;53.112;7.356;2022-12-29T05:06:49;24.40;95.20
19908;DHT22;10116;53.112;7.356;2022-12-29T05:09:15;24.40;95.40
19908;DHT22;10116;53.112;7.356;2022-12-29T05:11:41;24.40;95.00
19908;DHT22;10116;53.112;7.356;2022-12-29T05:14:06;24.40;95.00
19908;DHT22;10116;53.112;7.356;2022-12-29T05:16:32;24.40;95.00
19908;DHT22;10116;53.112;7.356;2022-12-29T05:18:57;24.40;95.00
19908;DHT22;10116;53.112;7.356;2022-12-29T05:21:23;24.40;95.00
19908;DHT22;10116;53.112;7.356;2022-12-29T05:23:48;24.40;94.70
19908;DHT22;10116;53.112;7.356;2022-12-29T05:26:14;24.40;94.70
19908;DHT22;10116;53.112;7.356;2022-12-29T05:28:40;24.40;95.60
19908;DHT22;10116;53.112;7.356;2022-12-29T05:31:05;24.40;94.70
19908;DHT22;10116;53.112;7.356;2022-12-29T05:33:31;24.40;94.80
19908;DHT22;10116;53.112;7.356;2022-12-29T05:35:56;24.40;94.90
19908;DHT22;10116;53.112;7.356;2022-12-29T05:38:22;24.40;94.30
19908;DHT22;10116;53.112;7.356;2022-12-29T05:40:48;24.40;94.60
19908;DHT22;10116;53.112;7.356;2022-12-29T05:43:14;24.40;94.60
19908;DHT22;10116;53.112;7.356;2022-12-29T05:45:39;24.40;94.60
19908;DHT22;10116;53.112;7.356;2022-12-29T05:48:05;24.40;94.70
19908;DHT22;10116;53.112;7.356;2022-12-29T05:50:30;24.40;94.70
19908;DHT22;10116;53.112;7.356;2022-12-29T05:52:56;24.50;94.80
19908;DHT22;10116;53.112;7.356;2022-12-29T05:55:21;24.50;95.00
19908;DHT22;10116;53.112;7.356;2022-12-29T05:57:47;24.50;95.50
19908;DHT22;10116;53.112;7.356;2022-12-29T06:00:13;24.50;95.20
19908;DHT22;10116;53.112;7.356;2022-12-29T06:02:39;24.60;95.90
19908;DHT22;10116;53.112;7.356;2022-12-29T06:05:05;24.60;95.60
19908;DHT22;10116;53.112;7.356;2022-12-29T06:07:31;24.60;95.30
19908;DHT22;10116;53.112;7.356;2022-12-29T06:09:56;24.60;95.60
19908;DHT22;10116;53.112;7.356;2022-12-29T06:12:22;24.60;95.20
19908;DHT22;10116;53.112;7.356;2022-12-29T06:14:47;24.60;95.40
19908;DHT22;10116;53.112;7.356;2022-12-29T06:17:13;24.60;95.50
19908;DHT22;10116;53.112;7.356;2022-12-29T06:19:39;24.60;95.10
19908;DHT22;10116;53.112;7.356;2022-12-29T06:22:04;24.60;95.70
19908;DHT22;10116;53.112;7.356;2022-12-29T06:24:30;24.50;95.10
19908;DHT22;10116;53.112;7.356;2022-12-29T06:26:55;24.60;95.10
19908;DHT22;10116;53.112;7.356;2022-12-29T06:29:21;24.60;94.90
19908;DHT22;10116;53.112;7.356;2022-12-29T06:31:47;24.60;94.80
19908;DHT22;10116;53.112;7.356;2022-12-29T06:34:14;24.60;95.20
19908;DHT22;10116;53.112;7.356;2022-12-29T06:36:39;24.60;94.90
19908;DHT22;10116;53.112;7.356;2022-12-29T06:39:05;24.50;94.60
19908;DHT22;10116;53.112;7.356;2022-12-29T06:41:31;24.50;94.70
19908;DHT22;10116;53.112;7.356;2022-12-29T06:43:57;24.50;94.50
19908;DHT22;10116;53.112;7.356;2022-12-29T06:46:22;24.50;94.90
19908;DHT22;10116;53.112;7.356;2022-12-29T06:48:48;24.50;95.00
19908;DHT22;10116;53.112;7.356;2022-12-29T06:51:13;24.50;94.60
19908;DHT22;10116;53.112;7.356;2022-12-29T06:53:39;24.50;94.40
19908;DHT22;10116;53.112;7.356;2022-12-29T06:56:05;24.50;94.50
19908;DHT22;10116;53.112;7.356;2022-12-29T06:58:30;24.50;94.40
19908;DHT22;10116;53.112;7.356;2022-12-29T07:00:56;24.50;94.40
19908;DHT22;10116;53.112;7.356;2022-12-29T07:03:21;24.60;94.90
19908;DHT22;10116;53.112;7.356;2022-12-29T07:05:47;24.60;95.10
19908;DHT22;10116;53.112;7.356;2022-12-29T07:08:13;24.60;95.40
19908;DHT22;10116;53.112;7.356;2022-12-29T07:10:39;24.60;95.20
19908;DHT22;10116;53.112;7.356;2022-12-29T07:13:05;24.70;96.10
19908;DHT22;10116;53.112;7.356;2022-12-29T07:15:33;24.70;95.70
19908;DHT22;10116;53.112;7.356;2022-12-29T07:17:58;24.70;95.60
19908;DHT22;10116;53.112;7.356;2022-12-29T07:20:24;24.70;95.70
19908;DHT22;10116;53.112;7.356;2022-12-29T07:22:50;24.70;95.60
19908;DHT22;10116;53.112;7.356;2022-12-29T07:25:15;24.60;95.30
19908;DHT22;10116;53.112;7.356;2022-12-29T07:27:41;24.60;95.00
19908;DHT22;10116;53.112;7.356;2022-12-29T07:30:07;24.60;94.90
19908;DHT22;10116;53.112;7.356;2022-12-29T07:32:34;24.60;95.40
19908;DHT22;10116;53.112;7.356;2022-12-29T07:34:59;24.60;94.40
19908;DHT22;10116;53.112;7.356;2022-12-29T07:37:25;24.50;94.80
19908;DHT22;10116;53.112;7.356;2022-12-29T07:39:51;24.50;94.30
19908;DHT22;10116;53.112;7.356;2022-12-29T07:42:16;24.50;94.50
19908;DHT22;10116;53.112;7.356;2022-12-29T07:44:42;24.50;94.10
19908;DHT22;10116;53.112;7.356;2022-12-29T07:47:07;24.50;94.20
19908;DHT22;10116;53.112;7.356;2022-12-29T07:49:33;24.40;93.70
19908;DHT22;10116;53.112;7.356;2022-12-29T07:51:59;24.40;93.30
19908;DHT22;10116;53.112;7.356;2022-12-29T07:54:24;24.40;93.80
19908;DHT22;10116;53.112;7.356;2022-12-29T07:56:50;24.30;93.10
19908;DHT22;10116;53.112;7.356;2022-12-29T07:59:16;24.30;93.20
19908;DHT22;10116;53.112;7.356;2022-12-29T08:01:41;24.30;93.40
19908;DHT22;10116;53.112;7.356;2022-12-29T08:04:07;24.30;92.40
19908;DHT22;10116;53.112;7.356;2022-12-29T08:06:33;24.20;92.40
19908;DHT22;10116;53.112;7.356;2022-12-29T08:08:58;24.20;92.20
19908;DHT22;10116;53.112;7.356;2022-12-29T08:11:25;24.20;92.50
19908;DHT22;10116;53.112;7.356;2022-12-29T08:13:51;24.20;92.40
19908;DHT22;10116;53.112;7.356;2022-12-29T08:16:16;24.20;92.30
19908;DHT22;10116;53.112;7.356;2022-12-29T08:18:42;24.20;92.50
19908;DHT22;10116;53.112;7.356;2022-12-29T08:21:07;24.20;92.80
19908;DHT22;10116;53.112;7.356;2022-12-29T08:23:33;24.20;92.40
19908;DHT22;10116;53.112;7.356;2022-12-29T08:26:00;24.20;92.70
19908;DHT22;10116;53.112;7.356;2022-12-29T08:28:26;24.20;92.20
19908;DHT22;10116;53.112;7.356;2022-12-29T08:30:52;24.20;92.00
19908;DHT22;10116;53.112;7.356;2022-12-29T08:33:18;24.20;92.00
19908;DHT22;10116;53.112;7.356;2022-12-29T08:35:44;24.20;91.80
19908;DHT22;10116;53.112;7.356;2022-12-29T08:38:10;24.20;91.80
19908;DHT22;10116;53.112;7.356;2022-12-29T08:40:38;24.20;91.80
19908;DHT22;10116;53.112;7.356;2022-12-29T08:43:04;24.30;92.10
19908;DHT22;10116;53.112;7.356;2022-12-29T08:45:30;24.30;92.00
19908;DHT22;10116;53.112;7.356;2022-12-29T08:47:56;24.30;92.20
19908;DHT22;10116;53.112;7.356;2022-12-29T08:50:21;24.30;92.40
19908;DHT22;10116;53.112;7.356;2022-12-29T08:52:47;24.30;92.30
19908;DHT22;10116;53.112;7.356;2022-12-29T08:55:13;24.30;92.50
19908;DHT22;10116;53.112;7.356;2022-12-29T08:57:38;24.30;92.50
19908;DHT22;10116;53.112;7.356;2022-12-29T09:00:05;24.30;92.40
19908;DHT22;10116;53.112;7.356;2022-12-29T09:02:31;24.30;92.30
19908;DHT22;10116;53.112;7.356;2022-12-29T09:04:56;24.30;92.00
19908;DHT22;10116;53.112;7.356;2022-12-29T09:07:26;24.30;92.10
19908;DHT22;10116;53.112;7.356;2022-12-29T09:09:51;24.30;91.80
19908;DHT22;10116;53.112;7.356;2022-12-29T09:12:17;24.20;91.70
19908;DHT22;10116;53.112;7.356;2022-12-29T09:14:43;24.20;91.30
19908;DHT22;10116;53.112;7.356;2022-12-29T09:17:10;24.20;91.20
19908;DHT22;10116;53.112;7.356;2022-12-29T09:19:55;24.20;91.20
19908;DHT22;10116;53.112;7.356;2022-12-29T09:22:20;24.20;91.30
19908;DHT22;10116;53.112;7.356;2022-12-29T09:24:46;24.20;91.50
19908;DHT22;10116;53.112;7.356;2022-12-29T09:27:12;24.20;91.20
19908;DHT22;10116;53.112;7.356;2022-12-29T09:29:37;24.20;91.30
19908;DHT22;10116;53.112;7.356;2022-12-29T09:32:03;24.20;91.00
19908;DHT22;10116;53.112;7.356;2022-12-29T09:34:29;24.20;90.90
19908;DHT22;10116;53.112;7.356;2022-12-29T09:36:55;24.30;91.40
19908;DHT22;10116;53.112;7.356;2022-12-29T09:39:22;24.20;91.10
19908;DHT22;10116;53.112;7.356;2022-12-29T09:45:05;24.20;91.20
19908;DHT22;10116;53.112;7.356;2022-12-29T09:47:31;24.20;91.20
19908;DHT22;10116;53.112;7.356;2022-12-29T09:50:49;24.20;91.20
19908;DHT22;10116;53.112;7.356;2022-12-29T09:53:03;24.20;94.60
19908;DHT22;10116;53.112;7.356;2022-12-29T09:55:44;24.20;91.00
19908;DHT22;10116;53.112;7.356;2022-12-29T09:58:36;24.20;91.10
19908;DHT22;10116;53.112;7.356;2022-12-29T10:01:12;24.20;91.10
19908;DHT22;10116;53.112;7.356;2022-12-29T10:03:52;24.20;91.10
19908;DHT22;10116;53.112;7.356;2022-12-29T10:09:06;24.20;90.90
19908;DHT22;10116;53.112;7.356;2022-12-29T10:19:46;24.10;90.60
19908;DHT22;10116;53.112;7.356;2022-12-29T10:25:19;24.10;90.50
19908;DHT22;10116;53.112;7.356;2022-12-29T10:27:50;24.10;90.50
19908;DHT22;10116;53.112;7.356;2022-12-29T10:30:16;24.10;90.70
19908;DHT22;10116;53.112;7.356;2022-12-29T10:32:52;24.10;90.50
19908;DHT22;10116;53.112;7.356;2022-12-29T10:35:21;24.10;90.60
19908;DHT22;10116;53.112;7.356;2022-12-29T10:40:26;24.10;90.70
19908;DHT22;10116;53.112;7.356;2022-12-29T10:42:55;24.10;90.60
19908;DHT22;10116;53.112;7.356;2022-12-29T10:45:25;24.10;90.60
19908;DHT22;10116;53.112;7.356;2022-12-29T10:48:10;24.10;90.70
19908;DHT22;10116;53.112;7.356;2022-12-29T10:50:37;24.10;90.20
19908;DHT22;10116;53.112;7.356;2022-12-29T10:53:10;24.10;90.20
19908;DHT22;10116;53.112;7.356;2022-12-29T10:55:38;24.10;90.60
19908;DHT22;10116;53.112;7.356;2022-12-29T10:58:06;24.10;90.30
19908;DHT22;10116;53.112;7.356;2022-12-29T11:00:33;24.10;97.70
19908;DHT22;10116;53.112;7.356;2022-12-29T11:08:31;24.20;91.60
19908;DHT22;10116;53.112;7.356;2022-12-29T11:11:00;24.30;91.80
19908;DHT22;10116;53.112;7.356;2022-12-29T11:13:32;24.30;92.40
19908;DHT22;10116;53.112;7.356;2022-12-29T11:15:58;24.30;92.20
19908;DHT22;10116;53.112;7.356;2022-12-29T11:18:37;24.40;93.10
19908;DHT22;10116;53.112;7.356;2022-12-29T11:23:56;24.40;93.30
19908;DHT22;10116;53.112;7.356;2022-12-29T11:26:24;24.40;92.80
19908;DHT22;10116;53.112;7.356;2022-12-29T11:31:41;24.40;92.50
19908;DHT22;10116;53.112;7.356;2022-12-29T11:34:07;24.40;92.60
19908;DHT22;10116;53.112;7.356;2022-12-29T11:36:34;24.40;92.80
19908;DHT22;10116;53.112;7.356;2022-12-29T11:39:00;24.40;93.00
19908;DHT22;10116;53.112;7.356;2022-12-29T11:41:28;24.50;93.00
19908;DHT22;10116;53.112;7.356;2022-12-29T11:44:00;24.50;92.70
19908;DHT22;10116;53.112;7.356;2022-12-29T11:46:29;24.40;93.10
19908;DHT22;10116;53.112;7.356;2022-12-29T11:48:57;24.50;92.70
19908;DHT22;10116;53.112;7.356;2022-12-29T11:51:28;24.40;92.80
19908;DHT22;10116;53.112;7.356;2022-12-29T11:53:59;24.40;92.60
19908;DHT22;10116;53.112;7.356;2022-12-29T11:56:41;24.40;92.70
19908;DHT22;10116;53.112;7.356;2022-12-29T11:59:35;24.40;92.30
19908;DHT22;10116;53.112;7.356;2022-12-29T12:04:56;24.40;92.20
19908;DHT22;10116;53.112;7.356;2022-12-29T12:07:44;24.40;92.60
19908;DHT22;10116;53.112;7.356;2022-12-29T12:10:16;24.40;92.40
19908;DHT22;10116;53.112;7.356;2022-12-29T12:12:45;24.40;92.70
19908;DHT22;10116;53.112;7.356;2022-12-29T12:15:42;24.50;93.40
19908;DHT22;10116;53.112;7.356;2022-12-29T12:18:10;24.50;93.30
19908;DHT22;10116;53.112;7.356;2022-12-29T12:20:42;24.60;99.90
19908;DHT22;10116;53.112;7.356;2022-12-29T12:31:18;24.60;93.80
19908;DHT22;10116;53.112;7.356;2022-12-29T12:33:55;24.60;93.60
19908;DHT22;10116;53.112;7.356;2022-12-29T12:36:57;24.70;93.80
19908;DHT22;10116;53.112;7.356;2022-12-29T12:39:27;24.70;93.60
19908;DHT22;10116;53.112;7.356;2022-12-29T12:50:11;24.70;93.60
19908;DHT22;10116;53.112;7.356;2022-12-29T13:06:44;24.60;93.70
19908;DHT22;10116;53.112;7.356;2022-12-29T13:12:15;24.70;93.30
19908;DHT22;10116;53.112;7.356;2022-12-29T13:23:12;24.60;93.00
19908;DHT22;10116;53.112;7.356;2022-12-29T13:25:51;24.60;95.70
19908;DHT22;10116;53.112;7.356;2022-12-29T13:28:55;24.60;92.90
19908;DHT22;10116;53.112;7.356;2022-12-29T13:37:02;24.60;92.60
19908;DHT22;10116;53.112;7.356;2022-12-29T13:39:36;24.60;92.80
19908;DHT22;10116;53.112;7.356;2022-12-29T13:42:04;24.60;92.50
19908;DHT22;10116;53.112;7.356;2022-12-29T13:44:40;24.60;92.50
19908;DHT22;10116;53.112;7.356;2022-12-29T13:49:44;24.60;92.30
19908;DHT22;10116;53.112;7.356;2022-12-29T13:57:53;24.60;92.50
19908;DHT22;10116;53.112;7.356;2022-12-29T14:00:26;24.60;92.20
19908;DHT22;10116;53.112;7.356;2022-12-29T14:03:43;24.60;92.90
19908;DHT22;10116;53.112;7.356;2022-12-29T14:06:26;24.60;92.30
19908;DHT22;10116;53.112;7.356;2022-12-29T14:09:00;24.60;92.10
19908;DHT22;10116;53.112;7.356;2022-12-29T14:11:40;24.60;92.10
19908;DHT22;10116;53.112;7.356;2022-12-29T14:14:25;24.60;92.80
19908;DHT22;10116;53.112;7.356;2022-12-29T14:16:53;24.60;93.20
19908;DHT22;10116;53.112;7.356;2022-12-29T14:19:34;24.70;92.80
19908;DHT22;10116;53.112;7.356;2022-12-29T14:22:02;24.70;93.10
19908;DHT22;10116;53.112;7.356;2022-12-29T14:24:41;24.80;93.80
19908;DHT22;10116;53.112;7.356;2022-12-29T14:34:53;24.80;93.60
19908;DHT22;10116;53.112;7.356;2022-12-29T14:37:34;24.90;93.80
19908;DHT22;10116;53.112;7.356;2022-12-29T14:40:24;24.90;94.10
19908;DHT22;10116;53.112;7.356;2022-12-29T14:42:54;24.90;93.60
19908;DHT22;10116;53.112;7.356;2022-12-29T14:47:48;24.80;94.10
19908;DHT22;10116;53.112;7.356;2022-12-29T14:50:43;24.90;93.80
19908;DHT22;10116;53.112;7.356;2022-12-29T14:56:09;24.90;93.80
19908;DHT22;10116;53.112;7.356;2022-12-29T14:58:56;24.80;93.50
19908;DHT22;10116;53.112;7.356;2022-12-29T15:01:45;24.90;93.20
19908;DHT22;10116;53.112;7.356;2022-12-29T15:04:22;24.80;93.40
19908;DHT22;10116;53.112;7.356;2022-12-29T15:06:50;24.80;92.90
19908;DHT22;10116;53.112;7.356;2022-12-29T15:09:45;24.80;93.60
19908;DHT22;10116;53.112;7.356;2022-12-29T15:12:29;24.80;93.50
19908;DHT22;10116;53.112;7.356;2022-12-29T15:14:57;24.80;92.90
19908;DHT22;10116;53.112;7.356;2022-12-29T15:17:34;24.80;92.80
19908;DHT22;10116;53.112;7.356;2022-12-29T15:20:22;24.80;93.00
19908;DHT22;10116;53.112;7.356;2022-12-29T15:22:57;24.80;92.80
19908;DHT22;10116;53.112;7.356;2022-12-29T15:25:24;24.80;92.70
19908;DHT22;10116;53.112;7.356;2022-12-29T15:27:52;24.80;92.60
19908;DHT22;10116;53.112;7.356;2022-12-29T15:30:18;24.80;92.90
19908;DHT22;10116;53.112;7.356;2022-12-29T15:32:46;24.90;93.30
19908;DHT22;10116;53.112;7.356;2022-12-29T15:35:34;24.90;93.40
19908;DHT22;10116;53.112;7.356;2022-12-29T15:38:01;24.90;93.30
19908;DHT22;10116;53.112;7.356;2022-12-29T15:40:37;25.00;93.90
19908;DHT22;10116;53.112;7.356;2022-12-29T15:45:57;25.00;93.50
19908;DHT22;10116;53.112;7.356;2022-12-29T15:48:24;25.00;93.60
19908;DHT22;10116;53.112;7.356;2022-12-29T15:50:51;25.00;93.80
19908;DHT22;10116;53.112;7.356;2022-12-29T15:53:26;25.00;93.90
19908;DHT22;10116;53.112;7.356;2022-12-29T15:55:59;25.00;93.70
19908;DHT22;10116;53.112;7.356;2022-12-29T15:58:30;25.00;93.80
19908;DHT22;10116;53.112;7.356;2022-12-29T16:01:01;25.00;99.90
19908;DHT22;10116;53.112;7.356;2022-12-29T16:03:29;25.00;93.40
19908;DHT22;10116;53.112;7.356;2022-12-29T16:06:08;25.00;93.50
19908;DHT22;10116;53.112;7.356;2022-12-29T16:08:36;25.00;93.60
19908;DHT22;10116;53.112;7.356;2022-12-29T16:11:21;25.00;93.60
19908;DHT22;10116;53.112;7.356;2022-12-29T16:13:48;25.00;93.30
19908;DHT22;10116;53.112;7.356;2022-12-29T16:16:30;25.00;93.10
19908;DHT22;10116;53.112;7.356;2022-12-29T16:18:57;25.00;93.10
19908;DHT22;10116;53.112;7.356;2022-12-29T16:21:27;25.00;92.90
19908;DHT22;10116;53.112;7.356;2022-12-29T16:23:55;25.00;92.80
19908;DHT22;10116;53.112;7.356;2022-12-29T16:26:24;25.00;92.70
19908;DHT22;10116;53.112;7.356;2022-12-29T16:28:58;24.90;92.70
19908;DHT22;10116;53.112;7.356;2022-12-29T16:31:35;24.90;92.60
19908;DHT22;10116;53.112;7.356;2022-12-29T16:34:33;24.90;92.40
19908;DHT22;10116;53.112;7.356;2022-12-29T16:37:28;24.90;92.50
19908;DHT22;10116;53.112;7.356;2022-12-29T16:39:54;24.90;92.60
19908;DHT22;10116;53.112;7.356;2022-12-29T16:45:22;24.90;92.40
19908;DHT22;10116;53.112;7.356;2022-12-29T16:50:34;25.00;92.70
19908;DHT22;10116;53.112;7.356;2022-12-29T16:53:01;25.00;93.20
19908;DHT22;10116;53.112;7.356;2022-12-29T16:55:28;25.00;93.40
19908;DHT22;10116;53.112;7.356;2022-12-29T16:57:55;25.00;93.00
19908;DHT22;10116;53.112;7.356;2022-12-29T17:00:35;25.00;93.10
19908;DHT22;10116;53.112;7.356;2022-12-29T17:03:01;25.00;93.30
19908;DHT22;10116;53.112;7.356;2022-12-29T17:05:27;25.10;93.00
19908;DHT22;10116;53.112;7.356;2022-12-29T17:07:53;25.10;92.70
19908;DHT22;10116;53.112;7.356;2022-12-29T17:10:19;25.10;93.30
19908;DHT22;10116;53.112;7.356;2022-12-29T17:12:47;25.00;92.70
19908;DHT22;10116;53.112;7.356;2022-12-29T17:15:26;25.10;92.80
19908;DHT22;10116;53.112;7.356;2022-12-29T17:17:54;25.00;92.80
19908;DHT22;10116;53.112;7.356;2022-12-29T17:20:24;25.00;92.40
19908;DHT22;10116;53.112;7.356;2022-12-29T17:22:51;25.00;92.50
19908;DHT22;10116;53.112;7.356;2022-12-29T17:25:23;25.00;92.50
19908;DHT22;10116;53.112;7.356;2022-12-29T17:27:56;25.00;92.30
19908;DHT22;10116;53.112;7.356;2022-12-29T17:30:24;25.00;92.30
19908;DHT22;10116;53.112;7.356;2022-12-29T17:32:52;25.00;91.90
19908;DHT22;10116;53.112;7.356;2022-12-29T17:35:21;25.00;92.00
19908;DHT22;10116;53.112;7.356;2022-12-29T17:37:47;25.00;91.70
19908;DHT22;10116;53.112;7.356;2022-12-29T17:40:18;25.00;92.00
19908;DHT22;10116;53.112;7.356;2022-12-29T17:42:46;25.00;91.60
19908;DHT22;10116;53.112;7.356;2022-12-29T17:45:21;24.90;91.40
19908;DHT22;10116;53.112;7.356;2022-12-29T17:47:47;24.90;91.50
19908;DHT22;10116;53.112;7.356;2022-12-29T17:50:15;24.90;91.40
19908;DHT22;10116;53.112;7.356;2022-12-29T17:52:42;24.90;91.20
19908;DHT22;10116;53.112;7.356;2022-12-29T17:55:15;24.90;91.20
19908;DHT22;10116;53.112;7.356;2022-12-29T17:57:41;24.90;91.50
19908;DHT22;10116;53.112;7.356;2022-12-29T18:00:23;24.90;91.20
19908;DHT22;10116;53.112;7.356;2022-12-29T18:02:52;24.90;91.30
19908;DHT22;10116;53.112;7.356;2022-12-29T18:05:27;25.00;92.00
19908;DHT22;10116;53.112;7.356;2022-12-29T18:07:55;25.00;91.90
19908;DHT22;10116;53.112;7.356;2022-12-29T18:10:22;25.00;92.50